Time;durP1;ratioP1;P1;durP2;ratioP2;P2;SDS_P1;SDS_P2;PMS_P1;PMS_P2;Temp;Humidity;BMP_temperature;BMP_pressure;BME280_temperature;BME280_humidity;BME280_pressure;Samples;Min_cycle;Max_cycle;Signal;HPM_P1;HPM_P2
2022/11/06 00:02:22;;;;;;;10.60;5.03;;;;;;;11.86;59.83;99713.69;4413015;32;20131;-91
2022/11/06 00:04:47;;;;;;;9.35;5.40;;;;;;;12.06;59.85;99712.91;4450020;32;20145;-91
2022/11/06 00:07:12;;;;;;;11.23;5.20;;;;;;;12.04;59.84;99718.19;4433429;32;27685;-91
2022/11/06 00:09:38;;;;;;;10.65;5.95;;;;;;;11.93;59.83;99723.81;4414649;32;20176;-92
2022/11/06 00:12:03;;;;;;;10.40;5.80;;;;;;;11.98;59.84;99724.50;4416821;32;20495;-91
2022/11/06 00:14:29;;;;;;;9.80;5.60;;;;;;;12.17;59.85;99721.19;4410925;32;20340;-91
2022/11/06 00:16:54;;;;;;;8.63;4.90;;;;;;;12.05;59.84;99726.87;4413245;32;21165;-90
2022/11/06 00:19:19;;;;;;;9.68;5.43;;;;;;;12.08;59.85;99725.00;4426531;32;20227;-92
2022/11/06 00:21:45;;;;;;;14.23;5.47;;;;;;;12.06;59.85;99731.16;4422720;32;23753;-90
2022/11/06 00:24:12;;;;;;;9.32;5.00;;;;;;;12.08;59.84;99734.59;4405691;32;20152;-92
2022/11/06 00:26:37;;;;;;;9.05;5.25;;;;;;;12.04;59.84;99726.00;4424954;32;20163;-93
2022/11/06 00:29:05;;;;;;;10.40;5.57;;;;;;;11.95;59.84;99732.44;4427187;32;20116;-95
2022/11/06 00:31:34;;;;;;;9.52;4.85;;;;;;;12.02;59.84;99721.78;4425243;32;20057;-92
2022/11/06 00:34:00;;;;;;;10.88;5.28;;;;;;;12.03;59.84;99726.94;4411716;32;20117;-92
2022/11/06 00:36:31;;;;;;;11.38;5.55;;;;;;;12.03;59.84;99728.69;4414009;32;20438;-92
2022/11/06 00:38:57;;;;;;;8.32;4.85;;;;;;;12.07;59.84;99722.47;4426902;32;20127;-92
2022/11/06 00:41:22;;;;;;;8.15;5.47;;;;;;;11.92;59.84;99722.12;4426058;32;20085;-92
2022/11/06 00:43:51;;;;;;;8.30;4.93;;;;;;;12.06;59.85;99712.91;4413703;32;20089;-92
2022/11/06 00:46:16;;;;;;;11.45;5.57;;;;;;;12.21;59.84;99717.53;4413566;32;20132;-92
2022/11/06 00:48:42;;;;;;;8.88;5.45;;;;;;;12.02;59.84;99721.78;4425696;32;22907;-92
2022/11/06 00:51:10;;;;;;;10.43;5.32;;;;;;;12.02;59.84;99717.41;4425626;32;20426;-90
2022/11/06 00:53:36;;;;;;;11.00;5.12;;;;;;;12.12;59.84;99717.91;4423530;32;20173;-92
2022/11/06 00:56:08;;;;;;;8.00;4.30;;;;;;;12.18;59.85;99715.91;4421909;32;20146;-92
2022/11/06 00:58:34;;;;;;;7.03;4.50;;;;;;;12.09;59.84;99718.87;4438901;32;20495;-91
2022/11/06 01:01:09;;;;;;;8.02;4.50;;;;;;;12.33;59.85;99716.22;4410807;32;20112;-91
2022/11/06 01:03:35;;;;;;;7.25;4.15;;;;;;;12.28;59.86;99717.22;4426221;32;20101;-90
2022/11/06 01:06:05;;;;;;;8.82;4.65;;;;;;;12.22;59.85;99719.25;4428518;32;20093;-91
2022/11/06 01:08:31;;;;;;;9.32;4.95;;;;;;;12.15;59.85;99723.00;4420625;32;20087;-90
2022/11/06 01:10:56;;;;;;;8.95;4.90;;;;;;;11.97;59.83;99729.78;4450676;32;20062;-90
2022/11/06 01:13:21;;;;;;;10.27;4.80;;;;;;;12.20;59.86;99724.53;4422910;32;20101;-92
2022/11/06 01:15:47;;;;;;;8.23;4.72;;;;;;;12.18;59.85;99734.19;4436104;32;31793;-91
2022/11/06 01:18:12;;;;;;;9.70;4.60;;;;;;;12.33;59.85;99730.12;4427192;32;20115;-92
2022/11/06 01:20:38;;;;;;;7.37;4.43;;;;;;;12.28;59.85;99729.44;4423226;32;26779;-92
2022/11/06 01:23:03;;;;;;;8.10;5.18;;;;;;;12.20;59.84;99734.13;4423000;32;20447;-91
2022/11/06 01:25:28;;;;;;;8.60;4.75;;;;;;;12.23;59.85;99736.59;4422981;32;20406;-90
2022/11/06 01:27:54;;;;;;;8.73;4.12;;;;;;;12.27;59.85;99727.72;4423091;32;20147;-91
2022/11/06 01:30:19;;;;;;;8.18;4.03;;;;;;;12.34;59.85;99725.75;4435475;32;20117;-92
2022/11/06 01:32:45;;;;;;;8.82;4.62;;;;;;;12.38;59.85;99729.94;4409926;32;20101;-91
2022/11/06 01:35:10;;;;;;;8.02;4.55;;;;;;;12.30;59.86;99732.81;4433416;32;20128;-92
2022/11/06 01:37:35;;;;;;;8.13;4.60;;;;;;;12.25;59.85;99730.41;4422581;32;20172;-92
2022/11/06 01:40:01;;;;;;;8.32;4.10;;;;;;;12.28;59.86;99727.66;4434906;32;20760;-91
2022/11/06 01:42:26;;;;;;;9.93;4.45;;;;;;;12.12;59.85;99725.75;4436548;32;20514;-91
2022/11/06 01:45:19;;;;;;;8.93;4.57;;;;;;;12.11;59.84;99731.88;4424904;32;20238;-91
2022/11/06 01:47:44;;;;;;;10.23;4.22;;;;;;;12.33;59.86;99724.91;4409618;32;20135;-92
2022/11/06 01:50:10;;;;;;;9.50;4.87;;;;;;;12.35;59.85;99724.84;4408862;32;20112;-92
2022/11/06 01:52:35;;;;;;;9.65;4.93;;;;;;;12.11;59.84;99735.31;4424972;32;20788;-91
2022/11/06 01:55:09;;;;;;;9.32;5.00;;;;;;;12.29;59.86;99728.53;4422329;32;20141;-92
2022/11/06 01:57:35;;;;;;;7.80;3.97;;;;;;;12.39;59.86;99737.72;4402951;32;20117;-92
2022/11/06 02:00:00;;;;;;;8.65;4.53;;;;;;;12.46;59.86;99733.94;4409063;32;27214;-92
2022/11/06 02:02:26;;;;;;;7.80;4.43;;;;;;;12.31;59.86;99729.34;4410284;32;33774;-91
2022/11/06 02:04:51;;;;;;;11.85;5.28;;;;;;;12.32;59.85;99736.25;4422453;32;20215;-93
2022/11/06 02:07:17;;;;;;;9.68;5.07;;;;;;;12.20;59.84;99736.72;4421450;32;20208;-92
2022/11/06 02:09:42;;;;;;;9.88;5.72;;;;;;;12.20;59.84;99734.97;4427817;32;20414;-92
2022/11/06 02:12:19;;;;;;;8.63;4.95;;;;;;;12.27;59.85;99746.00;4439748;32;28719;-91
2022/11/06 02:15:00;;;;;;;10.07;5.37;;;;;;;12.24;59.85;99743.50;4440250;32;20101;-91
2022/11/06 02:17:31;;;;;;;8.60;5.03;;;;;;;12.16;59.85;99746.44;4440226;32;20097;-91
2022/11/06 02:20:02;;;;;;;10.00;5.18;;;;;;;12.26;59.85;99739.94;4440355;32;20123;-91
2022/11/06 02:22:56;;;;;;;9.68;5.30;;;;;;;12.20;59.84;99749.78;4438037;32;20158;-90
2022/11/06 02:25:57;;;;;;;10.25;5.25;;;;;;;12.14;59.85;99750.88;4427303;32;20166;-93
2022/11/06 02:28:24;;;;;;;10.18;4.93;;;;;;;12.09;59.85;99755.41;4411325;32;20132;-93
2022/11/06 02:30:50;;;;;;;10.75;6.03;;;;;;;12.18;59.85;99751.59;4440429;32;20135;-91
2022/11/06 02:33:22;;;;;;;11.25;4.95;;;;;;;11.99;59.84;99752.28;4411976;32;20101;-91
2022/11/06 02:36:08;;;;;;;8.88;4.70;;;;;;;12.12;59.85;99751.84;4424760;32;20105;-92
2022/11/06 02:38:38;;;;;;;8.25;4.97;;;;;;;12.22;59.86;99755.78;4411541;32;20127;-91
2022/11/06 02:41:07;;;;;;;12.77;5.12;;;;;;;12.22;59.85;99759.22;4411945;32;20499;-91
2022/11/06 02:43:42;;;;;;;11.55;5.40;;;;;;;12.15;59.85;99769.97;4423473;32;20093;-90
2022/11/06 02:46:16;;;;;;;8.77;4.65;;;;;;;12.18;59.85;99770.72;4427151;32;20109;-90
2022/11/06 02:48:45;;;;;;;8.85;5.07;;;;;;;12.20;59.84;99773.25;4426993;32;20101;-91
2022/11/06 02:51:12;;;;;;;8.23;4.80;;;;;;;12.12;59.84;99777.94;4412018;32;20218;-90
2022/11/06 02:53:37;;;;;;;6.62;4.35;;;;;;;12.18;59.85;99775.06;4434504;32;20081;-89
2022/11/06 02:56:08;;;;;;;10.43;4.12;;;;;;;12.19;59.85;99776.78;4426137;32;32848;-91
2022/11/06 02:58:37;;;;;;;7.35;4.45;;;;;;;12.24;59.86;99772.22;4411819;32;20119;-90
2022/11/06 03:01:10;;;;;;;7.97;5.10;;;;;;;12.32;59.86;99779.78;4413692;32;20459;-88
2022/11/06 03:03:35;;;;;;;9.45;5.15;;;;;;;12.05;59.84;99781.66;4439504;32;20100;-90
2022/11/06 03:06:13;;;;;;;15.70;5.65;;;;;;;12.17;59.85;99784.66;4424062;32;20167;-89
2022/11/06 03:08:43;;;;;;;11.57;5.28;;;;;;;12.24;59.85;99785.28;4433570;32;20105;-90
2022/11/06 03:11:18;;;;;;;8.52;5.00;;;;;;;12.07;59.84;99785.94;4424442;32;20132;-90
2022/11/06 03:13:46;;;;;;;9.50;5.03;;;;;;;12.09;59.84;99781.50;4421936;32;20085;-89
2022/11/06 03:16:31;;;;;;;11.48;5.18;;;;;;;11.94;59.83;99790.75;4432629;32;20097;-90
2022/11/06 03:19:18;;;;;;;8.35;4.78;;;;;;;11.97;59.83;99782.78;4434613;32;20113;-90
2022/11/06 03:22:07;;;;;;;8.07;4.57;;;;;;;12.02;59.84;99789.59;4411108;32;20113;-90
2022/11/06 03:24:34;;;;;;;12.90;4.60;;;;;;;11.98;59.83;99791.47;4421860;32;20094;-88
2022/11/06 03:27:03;;;;;;;10.13;5.22;;;;;;;11.86;59.84;99802.37;4436102;32;20498;-89
2022/11/06 03:29:36;;;;;;;8.70;5.07;;;;;;;11.81;59.83;99802.50;4408961;32;20421;-90
2022/11/06 03:32:41;;;;;;;9.00;4.53;;;;;;;11.84;59.83;99801.59;4436255;32;20132;-89
2022/11/06 03:35:08;;;;;;;7.72;4.62;;;;;;;11.93;59.83;99799.47;4449277;32;20545;-90
2022/11/06 03:37:37;;;;;;;10.93;5.18;;;;;;;11.91;59.84;99809.13;4437221;32;20118;-90
2022/11/06 03:40:06;;;;;;;7.45;4.62;;;;;;;11.86;59.83;99804.97;4424601;32;20117;-90
2022/11/06 03:42:31;;;;;;;9.95;5.32;;;;;;;12.09;59.85;99812.81;4425187;32;20104;-90
2022/11/06 03:45:04;;;;;;;8.25;4.85;;;;;;;12.10;59.84;99813.66;4425340;32;20089;-90
2022/11/06 03:47:36;;;;;;;9.98;5.05;;;;;;;11.98;59.85;99810.59;4417839;32;20078;-90
2022/11/06 03:50:09;;;;;;;8.00;4.82;;;;;;;12.17;59.85;99815.97;4435001;32;20126;-90
2022/11/06 03:52:37;;;;;;;8.75;4.97;;;;;;;12.17;59.85;99817.75;4430031;32;20098;-89
2022/11/06 03:55:21;;;;;;;7.57;4.62;;;;;;;12.28;59.85;99812.94;4434402;32;20109;-89
2022/11/06 03:58:02;;;;;;;10.30;4.62;;;;;;;12.14;59.85;99820.47;4424467;32;20097;-89
2022/11/06 04:00:28;;;;;;;9.32;4.85;;;;;;;12.20;59.84;99815.84;4409008;32;20632;-88
2022/11/06 04:03:03;;;;;;;8.93;4.47;;;;;;;12.19;59.84;99818.53;4433687;32;27644;-89
2022/11/06 04:05:33;;;;;;;8.10;4.75;;;;;;;12.33;59.86;99816.25;4407305;32;20132;-89
2022/11/06 04:16:12;;;;;;;8.30;4.45;;;;;;;12.25;59.85;99823.50;4436765;32;20420;-88
2022/11/06 04:18:38;;;;;;;9.82;4.87;;;;;;;12.06;59.85;99825.09;4420872;32;20640;-89
2022/11/06 04:21:20;;;;;;;9.48;4.37;;;;;;;12.12;59.84;99827.50;4430461;32;20118;-89
2022/11/06 04:27:09;;;;;;;7.70;4.50;;;;;;;11.98;59.85;99826.22;4434603;32;20149;-89
2022/11/06 04:29:48;;;;;;;11.52;5.45;;;;;;;12.08;59.84;99823.31;4436563;32;20475;-89
2022/11/06 04:32:48;;;;;;;8.93;4.55;;;;;;;12.15;59.85;99830.00;4421104;32;20110;-90
2022/11/06 04:35:25;;;;;;;9.35;4.55;;;;;;;12.13;59.83;99829.19;4434078;32;20117;-90
2022/11/06 04:38:14;;;;;;;8.77;4.85;;;;;;;11.87;59.83;99820.56;4437709;32;20093;-89
2022/11/06 04:40:50;;;;;;;10.77;5.03;;;;;;;11.97;59.83;99824.53;4408182;32;20433;-90
2022/11/06 04:43:27;;;;;;;9.05;4.28;;;;;;;11.84;59.83;99828.50;4415871;32;20486;-90
2022/11/06 04:45:53;;;;;;;8.98;4.18;;;;;;;11.91;59.84;99819.56;4413369;32;20580;-90
2022/11/06 04:48:18;;;;;;;9.02;3.83;;;;;;;11.86;59.83;99824.09;4423470;32;20499;-89
2022/11/06 04:50:47;;;;;;;7.53;4.20;;;;;;;11.87;59.83;99822.34;4422234;32;34484;-89
2022/11/06 04:53:13;;;;;;;8.02;4.40;;;;;;;11.76;59.83;99829.62;4407869;32;20110;-90
2022/11/06 04:55:49;;;;;;;8.38;4.20;;;;;;;11.88;59.83;99832.72;4407413;32;32287;-92
2022/11/06 04:58:15;;;;;;;8.85;4.05;;;;;;;11.80;59.83;99831.25;4420994;32;20390;-91
2022/11/06 05:00:41;;;;;;;8.23;4.40;;;;;;;11.78;59.83;99833.91;4407588;32;20136;-90
2022/11/06 05:03:07;;;;;;;7.90;4.57;;;;;;;11.81;59.82;99839.03;4420573;32;20105;-90
2022/11/06 05:05:32;;;;;;;8.75;5.03;;;;;;;11.83;59.83;99834.63;4405032;32;31220;-89
2022/11/06 05:07:57;;;;;;;7.20;4.18;;;;;;;11.94;59.83;99826.41;4432479;32;35781;-88
2022/11/06 05:10:23;;;;;;;9.65;5.12;;;;;;;11.93;59.83;99827.31;4435667;32;29613;-89
2022/11/06 05:12:48;;;;;;;11.52;4.80;;;;;;;11.86;59.83;99824.09;4425353;32;20192;-90
2022/11/06 05:15:14;;;;;;;8.88;4.78;;;;;;;11.90;59.84;99828.28;4424763;32;38216;-90
2022/11/06 05:17:39;;;;;;;8.90;4.78;;;;;;;11.74;59.82;99829.69;4436544;32;20111;-89
2022/11/06 05:20:05;;;;;;;8.98;4.60;;;;;;;11.69;59.82;99834.22;4437897;32;36002;-87
2022/11/06 05:25:14;;;;;;;14.02;4.50;;;;;;;11.54;59.82;99833.00;4442715;32;20156;-90
2022/11/06 05:27:40;;;;;;;8.35;4.72;;;;;;;11.64;59.82;99842.22;4425187;32;20427;-90
2022/11/06 05:30:06;;;;;;;10.93;4.82;;;;;;;11.67;59.81;99839.50;4423915;32;34916;-89
2022/11/06 05:32:31;;;;;;;8.18;4.30;;;;;;;11.58;59.81;99852.84;4427518;32;20109;-89
2022/11/06 05:34:57;;;;;;;9.15;5.07;;;;;;;11.64;59.82;99849.19;4427140;32;20153;-89
2022/11/06 05:37:22;;;;;;;9.02;5.00;;;;;;;11.60;59.83;99853.66;4424897;32;20121;-89
2022/11/06 05:39:47;;;;;;;11.00;5.05;;;;;;;11.63;59.82;99850.94;4434463;32;20470;-88
2022/11/06 05:42:13;;;;;;;9.23;5.25;;;;;;;11.73;59.82;99854.06;4439541;32;28339;-90
2022/11/06 05:44:38;;;;;;;10.02;5.57;;;;;;;11.64;59.82;99862.22;4439959;32;21377;-89
2022/11/06 05:47:04;;;;;;;9.07;5.05;;;;;;;11.68;59.82;99859.44;4426931;32;20551;-90
2022/11/06 05:49:29;;;;;;;9.20;5.22;;;;;;;11.98;59.84;99860.16;4426962;32;23055;-90
2022/11/06 05:51:54;;;;;;;9.60;4.97;;;;;;;11.77;59.83;99870.47;4424415;32;21230;-90
2022/11/06 05:54:20;;;;;;;8.85;5.12;;;;;;;11.91;59.84;99869.09;4416616;32;20089;-89
2022/11/06 05:56:45;;;;;;;12.50;5.37;;;;;;;11.98;59.83;99867.12;4440110;32;20108;-90
2022/11/06 05:59:11;;;;;;;8.48;5.22;;;;;;;11.96;59.83;99882.84;4426345;32;27264;-89
2022/11/06 06:01:36;;;;;;;8.88;4.90;;;;;;;11.84;59.83;99883.28;4424505;32;20131;-90
2022/11/06 06:04:01;;;;;;;8.07;4.87;;;;;;;11.98;59.84;99883.62;4424006;32;20172;-88
2022/11/06 06:06:27;;;;;;;9.57;5.00;;;;;;;12.06;59.85;99890.31;4424746;32;20148;-89
2022/11/06 06:08:52;;;;;;;9.05;5.22;;;;;;;12.06;59.85;99891.16;4434684;32;23010;-89
2022/11/06 06:11:18;;;;;;;11.93;5.22;;;;;;;12.05;59.84;99899.06;4437176;32;20124;-89
2022/11/06 06:13:43;;;;;;;12.60;4.68;;;;;;;12.03;59.84;99906.94;4421915;32;20090;-90
2022/11/06 06:16:09;;;;;;;10.02;5.00;;;;;;;12.07;59.84;99902.50;4431757;32;20117;-88
2022/11/06 06:18:34;;;;;;;12.20;6.72;;;;;;;11.97;59.83;99901.94;4424192;32;20155;-89
2022/11/06 06:20:59;;;;;;;9.30;4.68;;;;;;;11.93;59.83;99901.22;4424625;32;20101;-89
2022/11/06 06:23:25;;;;;;;9.40;5.28;;;;;;;11.98;59.84;99907.09;4424033;32;20117;-88
2022/11/06 06:25:50;;;;;;;15.25;6.05;;;;;;;12.05;59.84;99909.50;4453925;32;20081;-87
2022/11/06 06:28:16;;;;;;;10.77;5.18;;;;;;;11.90;59.84;99906.53;4437520;32;35258;-90
2022/11/06 06:30:41;;;;;;;10.93;5.90;;;;;;;12.05;59.84;99912.94;4451394;32;20140;-89
2022/11/06 06:33:06;;;;;;;9.68;5.40;;;;;;;11.97;59.83;99908.00;4426142;32;20426;-90
2022/11/06 06:35:32;;;;;;;11.88;5.68;;;;;;;11.91;59.84;99910.84;4438538;32;20184;-89
2022/11/06 06:37:57;;;;;;;10.82;5.75;;;;;;;12.03;59.84;99914.75;4437584;32;20139;-89
2022/11/06 06:40:23;;;;;;;13.70;5.47;;;;;;;11.95;59.83;99922.03;4423393;32;27620;-89
2022/11/06 06:42:48;;;;;;;11.10;5.07;;;;;;;11.63;59.82;99926.56;4424148;32;23032;-91
2022/11/06 06:45:14;;;;;;;12.57;5.93;;;;;;;11.77;59.83;99931.28;4424531;32;20085;-91
2022/11/06 06:47:39;;;;;;;8.48;4.87;;;;;;;11.89;59.83;99938.75;4409094;32;20147;-92
2022/11/06 06:50:06;;;;;;;11.65;5.50;;;;;;;11.85;59.83;99941.50;4418976;32;20476;-92
2022/11/06 06:52:32;;;;;;;9.18;5.45;;;;;;;11.88;59.83;99942.25;4437009;32;20108;-91
2022/11/06 06:54:57;;;;;;;13.82;6.40;;;;;;;11.83;59.83;99944.19;4424213;32;20117;-90
2022/11/06 06:57:23;;;;;;;15.63;6.28;;;;;;;11.80;59.82;99949.47;4423629;32;26689;-91
2022/11/06 06:59:48;;;;;;;13.05;6.07;;;;;;;11.89;59.83;99945.72;4422792;32;24774;-91
2022/11/06 07:02:13;;;;;;;11.80;6.18;;;;;;;12.01;59.84;99949.66;4411451;32;20140;-92
2022/11/06 07:04:39;;;;;;;10.82;6.20;;;;;;;11.97;59.83;99948.91;4437474;32;20123;-91
2022/11/06 07:07:04;;;;;;;11.70;6.50;;;;;;;12.04;59.84;99949.53;4424174;32;24127;-91
2022/11/06 07:09:30;;;;;;;9.95;6.00;;;;;;;11.91;59.84;99947.37;4423901;32;20472;-90
2022/11/06 07:11:56;;;;;;;10.52;5.53;;;;;;;11.95;59.83;99953.31;4424426;32;20162;-91
2022/11/06 07:14:21;;;;;;;14.65;6.57;;;;;;;11.71;59.82;99959.34;4411797;32;20146;-91
2022/11/06 07:16:47;;;;;;;11.90;6.45;;;;;;;11.92;59.83;99967.31;4425055;32;20140;-91
2022/11/06 07:19:12;;;;;;;13.05;6.43;;;;;;;11.95;59.83;99958.53;4434876;32;20215;-91
2022/11/06 07:21:37;;;;;;;11.60;6.47;;;;;;;11.99;59.84;99962.75;4409413;32;20155;-92
2022/11/06 07:24:03;;;;;;;11.52;5.57;;;;;;;12.00;59.84;99964.44;4424572;32;20119;-91
2022/11/06 07:26:29;;;;;;;12.13;6.45;;;;;;;11.90;59.84;99969.13;4435552;32;20113;-91
2022/11/06 07:28:54;;;;;;;11.50;6.10;;;;;;;11.80;59.83;99964.25;4425063;32;20117;-91
2022/11/06 07:31:19;;;;;;;12.30;6.87;;;;;;;11.95;59.83;99961.16;4424166;32;29720;-91
2022/11/06 07:33:45;;;;;;;15.48;7.00;;;;;;;12.09;59.85;99960.69;4424165;32;20112;-91
2022/11/06 07:36:11;;;;;;;11.18;6.25;;;;;;;11.83;59.83;99967.66;4424065;32;22016;-91
2022/11/06 07:38:37;;;;;;;13.35;6.55;;;;;;;11.80;59.82;99970.34;4411169;32;20130;-92
2022/11/06 07:41:03;;;;;;;11.52;6.68;;;;;;;11.90;59.84;99966.53;4408449;32;20105;-92
2022/11/06 07:43:29;;;;;;;10.73;6.37;;;;;;;11.94;59.83;99973.34;4407975;32;20136;-91
2022/11/06 07:45:57;;;;;;;14.55;6.75;;;;;;;11.80;59.83;99974.69;4421787;32;20105;-91
2022/11/06 07:48:23;;;;;;;10.38;5.87;;;;;;;11.79;59.83;99975.59;4419013;32;20129;-91
2022/11/06 07:50:48;;;;;;;11.40;5.47;;;;;;;11.69;59.82;99981.09;4433962;32;22713;-91
2022/11/06 07:53:13;;;;;;;11.48;6.28;;;;;;;11.63;59.82;99977.84;4417225;32;20179;-91
2022/11/06 07:55:39;;;;;;;11.10;6.45;;;;;;;11.69;59.82;99977.66;4424253;32;20497;-91
2022/11/06 07:58:04;;;;;;;12.40;6.53;;;;;;;11.80;59.83;99979.91;4408641;32;20136;-91
2022/11/06 08:00:30;;;;;;;10.95;6.35;;;;;;;11.85;59.83;99978.03;4420114;32;20216;-91
2022/11/06 08:02:55;;;;;;;22.73;6.35;;;;;;;11.94;59.83;99977.72;4421686;32;21292;-90
2022/11/06 08:05:20;;;;;;;13.13;6.32;;;;;;;11.87;59.82;99984.03;4431861;32;20193;-92
2022/11/06 08:07:46;;;;;;;14.15;7.22;;;;;;;11.81;59.82;99982.47;4408731;32;20129;-91
2022/11/06 08:10:11;;;;;;;12.95;6.53;;;;;;;12.09;59.84;99971.13;4403940;32;20094;-91
2022/11/06 08:12:37;;;;;;;13.88;7.07;;;;;;;11.96;59.83;99979.34;4424061;32;20163;-91
2022/11/06 08:15:02;;;;;;;13.60;7.03;;;;;;;12.04;59.84;99981.69;4434456;32;20152;-91
2022/11/06 08:17:29;;;;;;;12.77;6.72;;;;;;;11.97;59.83;99980.22;4403963;32;20102;-92
2022/11/06 08:19:55;;;;;;;13.43;6.75;;;;;;;12.04;59.84;99980.84;4424193;32;20094;-92
2022/11/06 08:22:22;;;;;;;15.50;7.50;;;;;;;12.03;59.84;99981.75;4423941;32;20092;-91
2022/11/06 08:24:47;;;;;;;15.02;7.28;;;;;;;11.97;59.83;99982.81;4423625;32;20789;-91
2022/11/06 08:27:12;;;;;;;11.20;6.72;;;;;;;12.12;59.84;99981.44;4423231;32;28326;-90
2022/11/06 08:29:38;;;;;;;11.43;6.90;;;;;;;12.31;59.86;99979.91;4436357;32;20172;-91
2022/11/06 08:32:03;;;;;;;10.65;6.10;;;;;;;12.03;59.84;99989.56;4423734;32;20119;-91
2022/11/06 08:34:29;;;;;;;14.40;7.07;;;;;;;11.98;59.83;99981.91;4423941;32;20116;-91
2022/11/06 08:36:54;;;;;;;12.57;6.45;;;;;;;12.09;59.84;99978.94;4423711;32;20113;-92
2022/11/06 08:39:20;;;;;;;17.85;6.10;;;;;;;12.06;59.84;99985.09;4420943;32;21271;-91
2022/11/06 08:41:45;;;;;;;13.98;7.12;;;;;;;12.20;59.84;99987.25;4419376;32;20379;-91
2022/11/06 08:44:11;;;;;;;12.55;6.93;;;;;;;12.20;59.84;99979.41;4423791;32;20128;-91
2022/11/06 08:46:36;;;;;;;12.75;7.32;;;;;;;12.14;59.85;99988.31;4436567;32;20561;-92
2022/11/06 08:49:02;;;;;;;13.07;7.07;;;;;;;12.15;59.85;99976.97;4423285;32;20101;-89
2022/11/06 08:51:27;;;;;;;14.18;7.53;;;;;;;12.15;59.85;99978.72;4433354;32;26376;-92
2022/11/06 08:53:52;;;;;;;15.18;7.70;;;;;;;12.36;59.86;99974.53;4410012;32;20185;-91
2022/11/06 08:56:18;;;;;;;14.48;7.40;;;;;;;12.39;59.86;99974.41;4425484;32;20268;-91
2022/11/06 08:58:43;;;;;;;15.77;9.13;;;;;;;12.26;59.85;99973.97;4425963;32;20105;-92
2022/11/06 09:01:09;;;;;;;13.18;7.45;;;;;;;12.29;59.86;99977.31;4425894;32;20165;-92
2022/11/06 09:03:34;;;;;;;13.82;7.68;;;;;;;12.33;59.86;99980.69;4426379;32;20495;-91
2022/11/06 09:05:59;;;;;;;13.70;7.53;;;;;;;12.33;59.85;99982.47;4413284;32;20403;-91
2022/11/06 09:08:25;;;;;;;16.15;7.18;;;;;;;12.29;59.86;99984.31;4427741;32;24550;-92
2022/11/06 09:10:50;;;;;;;11.60;6.60;;;;;;;12.49;59.86;99984.44;4438713;32;20082;-93
2022/11/06 09:13:16;;;;;;;14.05;7.45;;;;;;;12.59;59.87;99983.22;4440494;32;20108;-91
2022/11/06 09:15:41;;;;;;;15.73;8.15;;;;;;;12.73;59.88;99974.00;4432922;32;20404;-92
2022/11/06 09:18:07;;;;;;;9.60;6.30;;;;;;;12.80;59.88;99965.06;4428743;32;20090;-91
2022/11/06 09:20:33;;;;;;;13.75;7.53;;;;;;;12.70;59.87;99969.75;4399546;32;20153;-91
2022/11/06 09:23:00;;;;;;;11.50;6.85;;;;;;;12.82;59.89;99968.47;4436756;32;20097;-92
2022/11/06 09:25:26;;;;;;;13.38;7.53;;;;;;;12.97;59.89;99962.63;4427758;32;20109;-91
2022/11/06 09:27:51;;;;;;;13.15;7.12;;;;;;;13.15;59.90;99966.31;4414127;32;20108;-92
2022/11/06 09:30:18;;;;;;;12.35;6.78;;;;;;;13.07;59.90;99968.38;4413431;32;20104;-91
2022/11/06 09:32:44;;;;;;;14.73;6.57;;;;;;;13.33;59.91;99970.00;4412417;32;20127;-92
2022/11/06 09:35:10;;;;;;;13.50;7.18;;;;;;;13.31;59.91;99966.59;4425864;32;20192;-91
2022/11/06 09:37:35;;;;;;;15.32;6.72;;;;;;;13.18;59.90;99967.06;4425459;32;20117;-92
2022/11/06 09:40:01;;;;;;;12.63;7.50;;;;;;;13.39;59.91;99967.12;4424553;32;25187;-91
2022/11/06 09:42:38;;;;;;;13.10;7.43;;;;;;;13.51;59.92;99956.19;4424989;32;20169;-91
2022/11/06 09:45:16;;;;;;;11.27;6.25;;;;;;;13.35;59.91;99961.19;4435411;32;20229;-92
2022/11/06 09:47:45;;;;;;;9.88;6.05;;;;;;;13.51;59.92;99959.66;4415796;32;20119;-91
2022/11/06 09:50:15;;;;;;;12.43;6.65;;;;;;;13.56;59.92;99954.25;4409930;32;20101;-92
2022/11/06 09:52:46;;;;;;;11.07;6.40;;;;;;;13.54;59.92;99963.91;4402603;32;20174;-92
2022/11/06 09:55:15;;;;;;;;;;;;;;;13.65;59.92;99960.84;4410537;32;20130;-91
2022/11/06 09:57:47;;;;;;;12.23;6.60;;;;;;;13.60;59.93;99957.56;4425723;32;20021;-91
2022/11/06 10:00:13;;;;;;;10.13;6.03;;;;;;;13.75;59.93;99951.72;4409938;32;20189;-91
2022/11/06 10:03:04;;;;;;;13.13;5.85;;;;;;;13.93;59.94;99953.53;4437075;32;20451;-92
2022/11/06 10:05:31;;;;;;;11.48;5.68;;;;;;;13.95;59.93;99951.72;4433915;32;20105;-92
2022/11/06 10:08:03;;;;;;;11.52;6.07;;;;;;;14.00;59.94;99956.78;4402030;32;20103;-92
2022/11/06 10:10:49;;;;;;;11.07;5.90;;;;;;;14.13;59.96;99944.84;4438291;32;20441;-91
2022/11/06 10:13:28;;;;;;;9.65;5.65;;;;;;;14.08;59.95;99945.03;4425036;32;20723;-92
2022/11/06 10:16:25;;;;;;;13.93;6.12;;;;;;;14.16;59.95;99939.47;4425178;32;20117;-91
2022/11/06 10:19:03;;;;;;;11.77;5.87;;;;;;;14.10;59.94;99943.22;4437516;32;20111;-93
2022/11/06 10:22:08;;;;;;;11.73;6.45;;;;;;;14.25;59.96;99943.47;4437589;32;20180;-92
2022/11/06 10:24:56;;;;;;;14.60;6.45;;;;;;;14.23;59.96;99942.69;4448175;32;20197;-92
2022/11/06 10:27:44;;;;;;;11.77;6.22;;;;;;;14.39;59.96;99931.44;4425432;32;20140;-92
2022/11/06 10:30:14;;;;;;;10.43;6.00;;;;;;;14.23;59.96;99935.69;4424777;32;20080;-92
2022/11/06 10:33:02;;;;;;;13.27;6.15;;;;;;;14.45;59.97;99937.38;4437854;32;20161;-91
2022/11/06 10:35:34;;;;;;;14.85;6.25;;;;;;;14.48;59.97;99942.47;4437452;32;20166;-92
2022/11/06 10:38:12;;;;;;;15.32;6.10;;;;;;;14.61;59.98;99931.38;4409765;32;20114;-91
2022/11/06 10:40:37;;;;;;;12.98;7.10;;;;;;;14.60;59.98;99931.44;4412410;32;20176;-91
2022/11/06 10:43:23;;;;;;;8.90;5.05;;;;;;;14.76;59.98;99921.09;4425025;32;20397;-92
2022/11/06 10:46:02;;;;;;;9.48;5.78;;;;;;;14.73;59.99;99928.19;4409546;32;20133;-92
2022/11/06 10:48:32;;;;;;;10.00;5.80;;;;;;;14.83;59.99;99931.22;4408260;32;20105;-91
2022/11/06 10:51:03;;;;;;;;;;;;;;;14.79;59.98;99923.59;4425136;32;20085;-93
2022/11/06 10:53:38;;;;;;;8.63;5.07;;;;;;;15.03;60.00;99923.28;4427689;32;19969;-90
2022/11/06 10:56:35;;;;;;;9.88;5.15;;;;;;;15.18;60.01;99916.47;4439771;32;20097;-89
2022/11/06 10:59:00;;;;;;;9.32;5.15;;;;;;;15.04;60.00;99906.62;4437401;32;20171;-89
2022/11/06 11:01:25;;;;;;;8.55;5.25;;;;;;;15.19;60.01;99915.53;4424701;32;20132;-89
2022/11/06 11:03:51;;;;;;;8.52;5.03;;;;;;;15.32;60.01;99906.12;4422902;32;20195;-89
2022/11/06 11:06:16;;;;;;;7.03;4.87;;;;;;;15.23;60.01;99895.25;4422195;32;20156;-90
2022/11/06 11:08:43;;;;;;;7.25;4.40;;;;;;;15.23;60.01;99896.09;4403586;32;20392;-90
2022/11/06 11:11:21;;;;;;;6.00;3.95;;;;;;;15.23;60.01;99900.50;4410607;32;20165;-89
2022/11/06 11:13:48;;;;;;;7.85;4.28;;;;;;;15.39;60.01;99893.59;4425114;32;20143;-89
2022/11/06 11:16:24;;;;;;;9.23;5.15;;;;;;;15.35;60.02;99897.25;4436554;32;20098;-89
2022/11/06 11:18:50;;;;;;;8.90;4.75;;;;;;;15.43;60.03;99894.28;4424477;32;20114;-89
2022/11/06 11:21:20;;;;;;;6.47;4.12;;;;;;;15.29;60.02;99897.56;4424468;32;20413;-89
2022/11/06 11:24:06;;;;;;;9.13;4.70;;;;;;;15.41;60.02;99897.00;4434875;32;20090;-89
2022/11/06 11:26:33;;;;;;;9.15;4.45;;;;;;;15.57;60.03;99892.66;4410068;32;20136;-89
2022/11/06 11:29:14;;;;;;;7.62;4.18;;;;;;;15.35;60.02;99905.12;4409192;32;20201;-89
2022/11/06 11:31:40;;;;;;;8.93;4.72;;;;;;;15.24;60.01;99896.97;4421395;32;20115;-89
2022/11/06 11:34:15;;;;;;;9.27;5.20;;;;;;;15.36;60.02;99899.81;4421789;32;20101;-88
2022/11/06 11:36:49;;;;;;;10.15;5.53;;;;;;;15.29;60.01;99903.66;4420612;32;20138;-89
2022/11/06 11:39:15;;;;;;;10.35;5.62;;;;;;;15.22;60.01;99896.19;4437730;32;20125;-89
2022/11/06 11:41:40;;;;;;;9.82;5.55;;;;;;;15.25;60.02;99899.50;4409014;32;20109;-89
2022/11/06 11:44:11;;;;;;;9.90;5.30;;;;;;;15.43;60.02;99897.75;4411524;32;20461;-89
2022/11/06 11:46:53;;;;;;;12.98;5.72;;;;;;;15.49;60.03;99892.19;4437991;32;20109;-90
2022/11/06 11:49:33;;;;;;;10.95;5.90;;;;;;;15.34;60.02;99891.16;4410144;32;20132;-89
2022/11/06 11:52:03;;;;;;;9.35;5.15;;;;;;;15.39;60.01;99890.97;4416125;32;20106;-90
2022/11/06 11:54:32;;;;;;;;;;;;;;;15.44;60.03;99885.50;4440524;32;20126;-90